sensor_id;sensor_type;location;lat;lon;timestamp;temperature;humidity
17619;DHT22;8928;51.678;6.074;2023-05-10T00:01:27;12.70;99.90
17619;DHT22;8928;51.678;6.074;2023-05-10T00:04:14;12.60;99.90
17619;DHT22;8928;51.678;6.074;2023-05-10T00:07:02;12.60;99.90
17619;DHT22;8928;51.678;6.074;2023-05-10T00:09:49;12.60;99.90
17619;DHT22;8928;51.678;6.074;2023-05-10T00:12:37;12.60;99.90
17619;DHT22;8928;51.678;6.074;2023-05-10T00:15:24;12.60;99.90
17619;DHT22;8928;51.678;6.074;2023-05-10T00:18:11;12.60;99.90
17619;DHT22;8928;51.678;6.074;2023-05-10T00:20:58;12.60;99.90
17619;DHT22;8928;51.678;6.074;2023-05-10T00:23:45;12.60;99.90
17619;DHT22;8928;51.678;6.074;2023-05-10T00:26:32;12.70;99.90
17619;DHT22;8928;51.678;6.074;2023-05-10T00:29:21;12.70;99.90
17619;DHT22;8928;51.678;6.074;2023-05-10T00:32:08;12.70;99.90
17619;DHT22;8928;51.678;6.074;2023-05-10T00:34:55;12.80;99.90
17619;DHT22;8928;51.678;6.074;2023-05-10T00:37:42;12.80;99.90
17619;DHT22;8928;51.678;6.074;2023-05-10T00:40:29;12.80;99.90
17619;DHT22;8928;51.678;6.074;2023-05-10T00:43:16;12.80;99.90
17619;DHT22;8928;51.678;6.074;2023-05-10T00:46:05;12.80;99.90
17619;DHT22;8928;51.678;6.074;2023-05-10T00:48:52;12.80;99.90
17619;DHT22;8928;51.678;6.074;2023-05-10T00:51:39;12.70;99.90
17619;DHT22;8928;51.678;6.074;2023-05-10T00:54:28;12.80;99.90
17619;DHT22;8928;51.678;6.074;2023-05-10T00:57:15;12.80;99.90
17619;DHT22;8928;51.678;6.074;2023-05-10T01:00:03;12.80;99.90
17619;DHT22;8928;51.678;6.074;2023-05-10T01:02:53;12.80;99.90
17619;DHT22;8928;51.678;6.074;2023-05-10T01:05:40;12.90;99.90
17619;DHT22;8928;51.678;6.074;2023-05-10T01:08:27;12.90;99.90
17619;DHT22;8928;51.678;6.074;2023-05-10T01:11:14;12.90;99.90
17619;DHT22;8928;51.678;6.074;2023-05-10T01:14:02;12.90;99.90
17619;DHT22;8928;51.678;6.074;2023-05-10T01:16:50;12.90;99.90
17619;DHT22;8928;51.678;6.074;2023-05-10T01:19:38;12.90;99.90
17619;DHT22;8928;51.678;6.074;2023-05-10T01:22:43;13.00;99.90
17619;DHT22;8928;51.678;6.074;2023-05-10T01:29:24;12.90;99.90
17619;DHT22;8928;51.678;6.074;2023-05-10T01:32:26;12.90;99.90
17619;DHT22;8928;51.678;6.074;2023-05-10T01:35:18;12.90;99.90
17619;DHT22;8928;51.678;6.074;2023-05-10T01:38:15;12.90;99.90
17619;DHT22;8928;51.678;6.074;2023-05-10T01:41:09;12.90;99.90
17619;DHT22;8928;51.678;6.074;2023-05-10T01:44:04;12.80;99.90
17619;DHT22;8928;51.678;6.074;2023-05-10T01:46:57;12.90;99.90
17619;DHT22;8928;51.678;6.074;2023-05-10T01:49:50;12.90;99.90
17619;DHT22;8928;51.678;6.074;2023-05-10T01:52:42;12.90;99.90
17619;DHT22;8928;51.678;6.074;2023-05-10T01:55:33;12.90;99.90
17619;DHT22;8928;51.678;6.074;2023-05-10T01:58:25;12.90;99.90
17619;DHT22;8928;51.678;6.074;2023-05-10T02:01:14;12.80;99.90
17619;DHT22;8928;51.678;6.074;2023-05-10T02:04:02;12.80;99.90
17619;DHT22;8928;51.678;6.074;2023-05-10T02:06:51;12.80;99.90
17619;DHT22;8928;51.678;6.074;2023-05-10T02:09:40;12.80;99.90
17619;DHT22;8928;51.678;6.074;2023-05-10T02:12:35;12.80;99.90
17619;DHT22;8928;51.678;6.074;2023-05-10T02:15:23;12.80;99.90
17619;DHT22;8928;51.678;6.074;2023-05-10T02:18:11;12.80;99.90
17619;DHT22;8928;51.678;6.074;2023-05-10T02:21:00;12.80;99.90
17619;DHT22;8928;51.678;6.074;2023-05-10T02:23:51;12.70;99.90
17619;DHT22;8928;51.678;6.074;2023-05-10T02:26:39;12.70;99.90
17619;DHT22;8928;51.678;6.074;2023-05-10T02:29:27;12.70;99.90
17619;DHT22;8928;51.678;6.074;2023-05-10T02:32:15;12.70;99.90
17619;DHT22;8928;51.678;6.074;2023-05-10T02:35:04;12.70;99.90
17619;DHT22;8928;51.678;6.074;2023-05-10T02:37:52;12.70;99.90
17619;DHT22;8928;51.678;6.074;2023-05-10T02:40:41;12.70;99.90
17619;DHT22;8928;51.678;6.074;2023-05-10T02:43:30;12.70;99.90
17619;DHT22;8928;51.678;6.074;2023-05-10T02:46:19;12.70;99.90
17619;DHT22;8928;51.678;6.074;2023-05-10T02:49:06;12.70;99.90
17619;DHT22;8928;51.678;6.074;2023-05-10T02:51:57;12.70;99.90
17619;DHT22;8928;51.678;6.074;2023-05-10T02:54:54;12.70;99.90
17619;DHT22;8928;51.678;6.074;2023-05-10T02:57:48;12.70;99.90
17619;DHT22;8928;51.678;6.074;2023-05-10T03:00:35;12.70;99.90
17619;DHT22;8928;51.678;6.074;2023-05-10T03:03:23;12.70;99.90
17619;DHT22;8928;51.678;6.074;2023-05-10T03:06:10;12.70;99.90
17619;DHT22;8928;51.678;6.074;2023-05-10T03:08:57;12.80;99.90
17619;DHT22;8928;51.678;6.074;2023-05-10T03:11:51;12.70;99.90
17619;DHT22;8928;51.678;6.074;2023-05-10T03:14:53;12.70;99.90
17619;DHT22;8928;51.678;6.074;2023-05-10T03:17:47;12.80;99.90
17619;DHT22;8928;51.678;6.074;2023-05-10T03:20:37;12.70;99.90
17619;DHT22;8928;51.678;6.074;2023-05-10T03:23:27;12.70;99.90
17619;DHT22;8928;51.678;6.074;2023-05-10T03:26:22;12.70;99.90
17619;DHT22;8928;51.678;6.074;2023-05-10T03:29:12;12.70;99.90
17619;DHT22;8928;51.678;6.074;2023-05-10T03:32:01;12.70;99.90
17619;DHT22;8928;51.678;6.074;2023-05-10T03:34:48;12.70;99.90
17619;DHT22;8928;51.678;6.074;2023-05-10T03:37:35;12.70;99.90
17619;DHT22;8928;51.678;6.074;2023-05-10T03:40:23;12.60;99.90
17619;DHT22;8928;51.678;6.074;2023-05-10T03:43:10;12.60;99.90
17619;DHT22;8928;51.678;6.074;2023-05-10T03:45:57;12.60;99.90
17619;DHT22;8928;51.678;6.074;2023-05-10T03:48:45;12.60;99.90
17619;DHT22;8928;51.678;6.074;2023-05-10T03:51:32;12.60;99.90
17619;DHT22;8928;51.678;6.074;2023-05-10T03:54:19;12.60;99.90
17619;DHT22;8928;51.678;6.074;2023-05-10T03:57:07;12.70;99.90
17619;DHT22;8928;51.678;6.074;2023-05-10T03:59:54;12.60;99.90
17619;DHT22;8928;51.678;6.074;2023-05-10T04:02:41;12.60;99.90
17619;DHT22;8928;51.678;6.074;2023-05-10T04:05:29;12.70;99.90
17619;DHT22;8928;51.678;6.074;2023-05-10T04:08:17;12.60;99.90
17619;DHT22;8928;51.678;6.074;2023-05-10T04:11:05;12.70;99.90
17619;DHT22;8928;51.678;6.074;2023-05-10T04:13:53;12.70;99.90
17619;DHT22;8928;51.678;6.074;2023-05-10T04:16:40;12.70;99.90
17619;DHT22;8928;51.678;6.074;2023-05-10T04:19:29;12.70;99.90
17619;DHT22;8928;51.678;6.074;2023-05-10T04:22:17;12.70;99.90
17619;DHT22;8928;51.678;6.074;2023-05-10T04:25:05;12.70;99.90
17619;DHT22;8928;51.678;6.074;2023-05-10T04:27:53;12.70;99.90
17619;DHT22;8928;51.678;6.074;2023-05-10T04:30:40;12.70;99.90
17619;DHT22;8928;51.678;6.074;2023-05-10T04:33:27;12.70;99.90
17619;DHT22;8928;51.678;6.074;2023-05-10T04:36:14;12.70;99.90
17619;DHT22;8928;51.678;6.074;2023-05-10T04:39:03;12.70;99.90
17619;DHT22;8928;51.678;6.074;2023-05-10T04:41:50;12.70;99.90
17619;DHT22;8928;51.678;6.074;2023-05-10T04:44:37;12.70;99.90
17619;DHT22;8928;51.678;6.074;2023-05-10T04:47:24;12.70;99.90
17619;DHT22;8928;51.678;6.074;2023-05-10T04:50:11;12.70;99.90
17619;DHT22;8928;51.678;6.074;2023-05-10T04:52:58;12.70;99.90
17619;DHT22;8928;51.678;6.074;2023-05-10T04:55:47;12.80;99.90
17619;DHT22;8928;51.678;6.074;2023-05-10T04:58:34;12.80;99.90
17619;DHT22;8928;51.678;6.074;2023-05-10T05:01:21;12.70;99.90
17619;DHT22;8928;51.678;6.074;2023-05-10T05:04:08;12.80;99.90
17619;DHT22;8928;51.678;6.074;2023-05-10T05:06:55;12.80;99.90
17619;DHT22;8928;51.678;6.074;2023-05-10T05:09:42;12.80;99.90
17619;DHT22;8928;51.678;6.074;2023-05-10T05:12:31;12.80;99.90
17619;DHT22;8928;51.678;6.074;2023-05-10T05:15:18;12.80;99.90
17619;DHT22;8928;51.678;6.074;2023-05-10T05:18:05;12.80;99.90
17619;DHT22;8928;51.678;6.074;2023-05-10T05:20:52;12.90;99.90
17619;DHT22;8928;51.678;6.074;2023-05-10T05:23:39;12.80;99.90
17619;DHT22;8928;51.678;6.074;2023-05-10T05:26:26;12.90;99.90
17619;DHT22;8928;51.678;6.074;2023-05-10T05:29:15;12.90;99.90
17619;DHT22;8928;51.678;6.074;2023-05-10T05:32:02;12.90;99.90
17619;DHT22;8928;51.678;6.074;2023-05-10T05:34:49;12.90;99.90
17619;DHT22;8928;51.678;6.074;2023-05-10T05:37:36;12.90;99.90
17619;DHT22;8928;51.678;6.074;2023-05-10T05:40:23;12.90;99.90
17619;DHT22;8928;51.678;6.074;2023-05-10T05:43:10;13.00;99.90
17619;DHT22;8928;51.678;6.074;2023-05-10T05:45:58;13.00;99.90
17619;DHT22;8928;51.678;6.074;2023-05-10T05:48:45;13.10;99.90
17619;DHT22;8928;51.678;6.074;2023-05-10T05:51:32;13.20;99.90
17619;DHT22;8928;51.678;6.074;2023-05-10T05:54:21;13.30;99.90
17619;DHT22;8928;51.678;6.074;2023-05-10T05:57:08;13.40;99.90
17619;DHT22;8928;51.678;6.074;2023-05-10T05:59:55;13.40;99.90
17619;DHT22;8928;51.678;6.074;2023-05-10T06:02:44;13.40;99.90
17619;DHT22;8928;51.678;6.074;2023-05-10T06:05:31;13.40;99.90
17619;DHT22;8928;51.678;6.074;2023-05-10T06:08:18;13.30;99.90
17619;DHT22;8928;51.678;6.074;2023-05-10T06:11:06;13.10;99.90
17619;DHT22;8928;51.678;6.074;2023-05-10T06:13:53;13.00;99.90
17619;DHT22;8928;51.678;6.074;2023-05-10T06:16:40;13.00;99.90
17619;DHT22;8928;51.678;6.074;2023-05-10T06:19:28;12.90;99.90
17619;DHT22;8928;51.678;6.074;2023-05-10T06:22:15;12.90;99.90
17619;DHT22;8928;51.678;6.074;2023-05-10T06:25:02;12.80;99.90
17619;DHT22;8928;51.678;6.074;2023-05-10T06:27:50;12.80;99.90
17619;DHT22;8928;51.678;6.074;2023-05-10T06:30:41;12.90;99.90
17619;DHT22;8928;51.678;6.074;2023-05-10T06:33:28;13.00;99.90
17619;DHT22;8928;51.678;6.074;2023-05-10T06:36:16;13.00;99.90
17619;DHT22;8928;51.678;6.074;2023-05-10T06:39:03;13.00;99.90
17619;DHT22;8928;51.678;6.074;2023-05-10T06:41:51;13.10;99.90
17619;DHT22;8928;51.678;6.074;2023-05-10T06:44:38;13.10;99.90
17619;DHT22;8928;51.678;6.074;2023-05-10T06:47:25;13.10;99.90
17619;DHT22;8928;51.678;6.074;2023-05-10T06:50:12;13.20;99.90
17619;DHT22;8928;51.678;6.074;2023-05-10T06:53:01;13.20;99.90
17619;DHT22;8928;51.678;6.074;2023-05-10T06:55:49;13.40;99.90
17619;DHT22;8928;51.678;6.074;2023-05-10T06:58:36;13.60;99.90
17619;DHT22;8928;51.678;6.074;2023-05-10T07:01:23;13.90;99.90
17619;DHT22;8928;51.678;6.074;2023-05-10T07:04:10;13.90;99.90
17619;DHT22;8928;51.678;6.074;2023-05-10T07:06:58;14.20;99.90
17619;DHT22;8928;51.678;6.074;2023-05-10T07:09:46;14.40;99.90
17619;DHT22;8928;51.678;6.074;2023-05-10T07:12:35;14.10;99.90
17619;DHT22;8928;51.678;6.074;2023-05-10T07:15:22;13.80;99.90
17619;DHT22;8928;51.678;6.074;2023-05-10T07:18:09;13.60;99.90
17619;DHT22;8928;51.678;6.074;2023-05-10T07:20:57;13.40;99.90
17619;DHT22;8928;51.678;6.074;2023-05-10T07:23:44;13.20;99.90
17619;DHT22;8928;51.678;6.074;2023-05-10T07:26:32;13.20;99.90
17619;DHT22;8928;51.678;6.074;2023-05-10T07:29:19;13.30;99.90
17619;DHT22;8928;51.678;6.074;2023-05-10T07:32:06;13.50;99.90
17619;DHT22;8928;51.678;6.074;2023-05-10T07:34:53;13.80;99.90
17619;DHT22;8928;51.678;6.074;2023-05-10T07:37:40;13.70;99.90
17619;DHT22;8928;51.678;6.074;2023-05-10T07:40:28;13.70;99.90
17619;DHT22;8928;51.678;6.074;2023-05-10T07:43:16;13.70;99.90
17619;DHT22;8928;51.678;6.074;2023-05-10T07:46:03;13.80;99.90
17619;DHT22;8928;51.678;6.074;2023-05-10T07:48:51;13.70;99.90
17619;DHT22;8928;51.678;6.074;2023-05-10T07:51:38;13.70;99.90
17619;DHT22;8928;51.678;6.074;2023-05-10T07:54:25;13.60;99.90
17619;DHT22;8928;51.678;6.074;2023-05-10T07:57:12;13.50;99.90
17619;DHT22;8928;51.678;6.074;2023-05-10T08:00:01;13.30;99.90
17619;DHT22;8928;51.678;6.074;2023-05-10T08:02:49;13.30;99.90
17619;DHT22;8928;51.678;6.074;2023-05-10T08:05:36;13.30;99.90
17619;DHT22;8928;51.678;6.074;2023-05-10T08:08:23;13.40;99.90
17619;DHT22;8928;51.678;6.074;2023-05-10T08:11:10;13.40;99.90
17619;DHT22;8928;51.678;6.074;2023-05-10T08:13:57;13.40;99.90
17619;DHT22;8928;51.678;6.074;2023-05-10T08:16:46;13.40;99.90
17619;DHT22;8928;51.678;6.074;2023-05-10T08:19:33;13.50;99.90
17619;DHT22;8928;51.678;6.074;2023-05-10T08:22:20;13.70;99.90
17619;DHT22;8928;51.678;6.074;2023-05-10T08:25:08;14.00;99.90
17619;DHT22;8928;51.678;6.074;2023-05-10T08:27:55;14.20;99.90
17619;DHT22;8928;51.678;6.074;2023-05-10T08:30:42;14.30;99.90
17619;DHT22;8928;51.678;6.074;2023-05-10T08:33:30;14.20;99.90
17619;DHT22;8928;51.678;6.074;2023-05-10T08:36:17;14.20;99.90
17619;DHT22;8928;51.678;6.074;2023-05-10T08:39:07;14.10;99.90
17619;DHT22;8928;51.678;6.074;2023-05-10T08:41:58;14.00;99.90
17619;DHT22;8928;51.678;6.074;2023-05-10T08:44:48;13.80;99.90
17619;DHT22;8928;51.678;6.074;2023-05-10T08:47:36;13.70;99.90
17619;DHT22;8928;51.678;6.074;2023-05-10T08:50:25;13.60;99.90
17619;DHT22;8928;51.678;6.074;2023-05-10T08:53:13;13.60;99.90
17619;DHT22;8928;51.678;6.074;2023-05-10T08:56:02;13.60;99.90
17619;DHT22;8928;51.678;6.074;2023-05-10T08:58:50;13.70;99.90
17619;DHT22;8928;51.678;6.074;2023-05-10T09:01:38;13.70;99.90
17619;DHT22;8928;51.678;6.074;2023-05-10T09:04:25;13.80;99.90
17619;DHT22;8928;51.678;6.074;2023-05-10T09:07:14;13.90;99.90
17619;DHT22;8928;51.678;6.074;2023-05-10T09:10:02;13.90;99.90
17619;DHT22;8928;51.678;6.074;2023-05-10T09:12:49;13.90;99.90
17619;DHT22;8928;51.678;6.074;2023-05-10T09:15:36;13.90;99.90
17619;DHT22;8928;51.678;6.074;2023-05-10T09:18:23;14.00;99.90
17619;DHT22;8928;51.678;6.074;2023-05-10T09:21:10;14.00;99.90
17619;DHT22;8928;51.678;6.074;2023-05-10T09:24:02;14.10;99.90
17619;DHT22;8928;51.678;6.074;2023-05-10T09:26:50;14.30;99.90
17619;DHT22;8928;51.678;6.074;2023-05-10T09:29:41;14.60;99.90
17619;DHT22;8928;51.678;6.074;2023-05-10T09:32:37;14.70;99.90
17619;DHT22;8928;51.678;6.074;2023-05-10T09:35:25;14.90;99.90
17619;DHT22;8928;51.678;6.074;2023-05-10T09:38:13;14.90;99.90
17619;DHT22;8928;51.678;6.074;2023-05-10T09:41:01;15.00;99.90
17619;DHT22;8928;51.678;6.074;2023-05-10T09:43:50;15.00;99.90
17619;DHT22;8928;51.678;6.074;2023-05-10T09:46:41;14.80;99.90
17619;DHT22;8928;51.678;6.074;2023-05-10T09:49:29;14.80;99.90
17619;DHT22;8928;51.678;6.074;2023-05-10T09:52:16;14.90;99.90
17619;DHT22;8928;51.678;6.074;2023-05-10T09:55:04;14.80;99.90
17619;DHT22;8928;51.678;6.074;2023-05-10T09:58:00;14.90;99.90
17619;DHT22;8928;51.678;6.074;2023-05-10T10:00:48;15.00;99.90
17619;DHT22;8928;51.678;6.074;2023-05-10T10:03:41;15.00;99.90
17619;DHT22;8928;51.678;6.074;2023-05-10T10:06:28;15.20;99.90
17619;DHT22;8928;51.678;6.074;2023-05-10T10:09:16;15.40;99.90
17619;DHT22;8928;51.678;6.074;2023-05-10T10:12:04;15.70;99.90
17619;DHT22;8928;51.678;6.074;2023-05-10T10:14:53;15.60;99.90
17619;DHT22;8928;51.678;6.074;2023-05-10T10:17:41;15.80;99.90
17619;DHT22;8928;51.678;6.074;2023-05-10T10:20:29;15.70;99.90
17619;DHT22;8928;51.678;6.074;2023-05-10T10:23:16;15.60;99.90
17619;DHT22;8928;51.678;6.074;2023-05-10T10:26:04;15.60;99.90
17619;DHT22;8928;51.678;6.074;2023-05-10T10:29:00;15.80;99.90
17619;DHT22;8928;51.678;6.074;2023-05-10T10:31:57;16.00;99.90
17619;DHT22;8928;51.678;6.074;2023-05-10T10:34:49;16.10;99.90
17619;DHT22;8928;51.678;6.074;2023-05-10T10:37:46;16.20;99.90
17619;DHT22;8928;51.678;6.074;2023-05-10T10:40:34;16.20;99.90
17619;DHT22;8928;51.678;6.074;2023-05-10T10:43:22;15.90;99.90
17619;DHT22;8928;51.678;6.074;2023-05-10T10:46:12;15.90;99.90
17619;DHT22;8928;51.678;6.074;2023-05-10T10:49:10;15.80;99.90
17619;DHT22;8928;51.678;6.074;2023-05-10T10:52:22;15.80;99.90
17619;DHT22;8928;51.678;6.074;2023-05-10T10:55:10;16.20;99.90
17619;DHT22;8928;51.678;6.074;2023-05-10T10:57:57;16.70;99.90
17619;DHT22;8928;51.678;6.074;2023-05-10T11:00:47;16.80;99.90
17619;DHT22;8928;51.678;6.074;2023-05-10T11:03:35;16.90;99.90
17619;DHT22;8928;51.678;6.074;2023-05-10T11:06:30;16.80;99.90
17619;DHT22;8928;51.678;6.074;2023-05-10T11:09:18;16.40;99.90
17619;DHT22;8928;51.678;6.074;2023-05-10T11:12:08;16.10;99.90
17619;DHT22;8928;51.678;6.074;2023-05-10T11:14:57;16.00;99.90
17619;DHT22;8928;51.678;6.074;2023-05-10T11:17:44;15.90;99.90
17619;DHT22;8928;51.678;6.074;2023-05-10T11:20:39;16.00;99.90
17619;DHT22;8928;51.678;6.074;2023-05-10T11:23:32;16.10;99.90
17619;DHT22;8928;51.678;6.074;2023-05-10T11:26:19;16.20;99.90
17619;DHT22;8928;51.678;6.074;2023-05-10T11:29:08;16.40;99.90
17619;DHT22;8928;51.678;6.074;2023-05-10T11:31:57;16.60;99.90
17619;DHT22;8928;51.678;6.074;2023-05-10T11:34:47;16.50;99.90
17619;DHT22;8928;51.678;6.074;2023-05-10T11:37:34;16.30;99.90
17619;DHT22;8928;51.678;6.074;2023-05-10T11:40:23;16.10;99.90
17619;DHT22;8928;51.678;6.074;2023-05-10T11:43:10;15.80;99.90
17619;DHT22;8928;51.678;6.074;2023-05-10T11:45:58;15.70;99.90
17619;DHT22;8928;51.678;6.074;2023-05-10T11:48:47;15.30;99.90
17619;DHT22;8928;51.678;6.074;2023-05-10T11:51:35;15.30;99.90
17619;DHT22;8928;51.678;6.074;2023-05-10T11:54:22;15.20;99.90
17619;DHT22;8928;51.678;6.074;2023-05-10T11:57:11;15.20;99.90
17619;DHT22;8928;51.678;6.074;2023-05-10T11:59:58;15.20;99.90
17619;DHT22;8928;51.678;6.074;2023-05-10T12:02:45;15.20;99.90
17619;DHT22;8928;51.678;6.074;2023-05-10T12:05:32;15.10;99.90
17619;DHT22;8928;51.678;6.074;2023-05-10T12:08:21;15.10;99.90
17619;DHT22;8928;51.678;6.074;2023-05-10T12:11:09;15.20;99.90
17619;DHT22;8928;51.678;6.074;2023-05-10T12:13:58;15.30;99.90
17619;DHT22;8928;51.678;6.074;2023-05-10T12:16:45;15.50;99.90
17619;DHT22;8928;51.678;6.074;2023-05-10T12:19:37;15.70;99.90
17619;DHT22;8928;51.678;6.074;2023-05-10T12:22:24;15.90;99.90
17619;DHT22;8928;51.678;6.074;2023-05-10T12:25:11;16.00;99.90
17619;DHT22;8928;51.678;6.074;2023-05-10T12:27:59;16.10;99.90
17619;DHT22;8928;51.678;6.074;2023-05-10T12:30:48;16.30;99.90
17619;DHT22;8928;51.678;6.074;2023-05-10T12:33:36;16.40;99.90
17619;DHT22;8928;51.678;6.074;2023-05-10T12:36:25;16.30;99.90
17619;DHT22;8928;51.678;6.074;2023-05-10T12:39:12;16.20;99.90
17619;DHT22;8928;51.678;6.074;2023-05-10T12:41:59;16.40;99.90
17619;DHT22;8928;51.678;6.074;2023-05-10T12:44:46;16.50;99.90
17619;DHT22;8928;51.678;6.074;2023-05-10T12:47:34;16.60;99.90
17619;DHT22;8928;51.678;6.074;2023-05-10T12:50:21;16.80;99.90
17619;DHT22;8928;51.678;6.074;2023-05-10T12:53:10;16.90;99.90
17619;DHT22;8928;51.678;6.074;2023-05-10T12:55:57;16.80;99.90
17619;DHT22;8928;51.678;6.074;2023-05-10T12:58:44;17.00;99.90
17619;DHT22;8928;51.678;6.074;2023-05-10T13:01:33;17.00;99.90
17619;DHT22;8928;51.678;6.074;2023-05-10T13:04:22;16.90;99.90
17619;DHT22;8928;51.678;6.074;2023-05-10T13:07:09;16.90;99.90
17619;DHT22;8928;51.678;6.074;2023-05-10T13:09:56;16.80;99.90
17619;DHT22;8928;51.678;6.074;2023-05-10T13:12:43;16.50;99.90
17619;DHT22;8928;51.678;6.074;2023-05-10T13:15:30;16.30;99.90
17619;DHT22;8928;51.678;6.074;2023-05-10T13:18:17;16.00;99.90
17619;DHT22;8928;51.678;6.074;2023-05-10T13:21:06;15.90;99.90
17619;DHT22;8928;51.678;6.074;2023-05-10T13:23:53;15.80;99.90
17619;DHT22;8928;51.678;6.074;2023-05-10T13:26:40;15.60;99.90
17619;DHT22;8928;51.678;6.074;2023-05-10T13:29:27;15.50;99.90
17619;DHT22;8928;51.678;6.074;2023-05-10T13:32:14;15.40;99.90
17619;DHT22;8928;51.678;6.074;2023-05-10T13:35:02;15.40;99.90
17619;DHT22;8928;51.678;6.074;2023-05-10T13:37:51;15.50;99.90
17619;DHT22;8928;51.678;6.074;2023-05-10T13:40:39;15.70;99.90
17619;DHT22;8928;51.678;6.074;2023-05-10T13:43:26;15.90;99.90
17619;DHT22;8928;51.678;6.074;2023-05-10T13:46:13;16.10;99.90
17619;DHT22;8928;51.678;6.074;2023-05-10T13:49:00;16.20;99.90
17619;DHT22;8928;51.678;6.074;2023-05-10T13:51:47;16.00;99.90
17619;DHT22;8928;51.678;6.074;2023-05-10T13:54:36;15.80;99.90
17619;DHT22;8928;51.678;6.074;2023-05-10T13:57:23;15.40;99.90
17619;DHT22;8928;51.678;6.074;2023-05-10T14:00:11;15.20;99.90
17619;DHT22;8928;51.678;6.074;2023-05-10T14:02:58;15.00;99.90
17619;DHT22;8928;51.678;6.074;2023-05-10T14:05:46;15.10;99.90
17619;DHT22;8928;51.678;6.074;2023-05-10T14:08:33;15.00;99.90
17619;DHT22;8928;51.678;6.074;2023-05-10T14:11:21;15.10;99.90
17619;DHT22;8928;51.678;6.074;2023-05-10T14:14:09;15.10;99.90
17619;DHT22;8928;51.678;6.074;2023-05-10T14:16:56;15.10;99.90
17619;DHT22;8928;51.678;6.074;2023-05-10T14:19:43;15.00;99.90
17619;DHT22;8928;51.678;6.074;2023-05-10T14:22:30;14.90;99.90
17619;DHT22;8928;51.678;6.074;2023-05-10T14:25:17;14.80;99.90
17619;DHT22;8928;51.678;6.074;2023-05-10T14:28:06;14.80;99.90
17619;DHT22;8928;51.678;6.074;2023-05-10T14:30:53;14.80;99.90
17619;DHT22;8928;51.678;6.074;2023-05-10T14:33:40;14.80;99.90
17619;DHT22;8928;51.678;6.074;2023-05-10T14:36:27;14.80;99.90
17619;DHT22;8928;51.678;6.074;2023-05-10T14:39:14;14.90;99.90
17619;DHT22;8928;51.678;6.074;2023-05-10T14:42:02;14.90;99.90
17619;DHT22;8928;51.678;6.074;2023-05-10T14:44:50;15.10;99.90
17619;DHT22;8928;51.678;6.074;2023-05-10T14:47:37;15.40;99.90
17619;DHT22;8928;51.678;6.074;2023-05-10T14:50:25;15.50;99.90
17619;DHT22;8928;51.678;6.074;2023-05-10T14:53:12;15.70;99.90
17619;DHT22;8928;51.678;6.074;2023-05-10T14:55:59;15.90;99.90
17619;DHT22;8928;51.678;6.074;2023-05-10T14:58:47;16.10;99.90
17619;DHT22;8928;51.678;6.074;2023-05-10T15:01:35;16.60;99.90
17619;DHT22;8928;51.678;6.074;2023-05-10T15:04:23;17.20;99.90
17619;DHT22;8928;51.678;6.074;2023-05-10T15:07:10;17.60;99.90
17619;DHT22;8928;51.678;6.074;2023-05-10T15:10:00;17.50;99.90
17619;DHT22;8928;51.678;6.074;2023-05-10T15:12:47;17.20;99.90
17619;DHT22;8928;51.678;6.074;2023-05-10T15:15:34;17.20;99.90
17619;DHT22;8928;51.678;6.074;2023-05-10T15:18:22;17.20;99.90
17619;DHT22;8928;51.678;6.074;2023-05-10T15:21:09;17.00;99.90
17619;DHT22;8928;51.678;6.074;2023-05-10T15:23:56;16.80;99.90
17619;DHT22;8928;51.678;6.074;2023-05-10T15:26:45;17.10;99.90
17619;DHT22;8928;51.678;6.074;2023-05-10T15:29:32;18.50;99.90
17619;DHT22;8928;51.678;6.074;2023-05-10T15:32:20;19.70;99.90
17619;DHT22;8928;51.678;6.074;2023-05-10T15:35:09;19.20;99.90
17619;DHT22;8928;51.678;6.074;2023-05-10T15:37:56;18.60;99.90
17619;DHT22;8928;51.678;6.074;2023-05-10T15:40:43;18.10;99.90
17619;DHT22;8928;51.678;6.074;2023-05-10T15:43:30;17.80;99.90
17619;DHT22;8928;51.678;6.074;2023-05-10T15:46:17;17.40;99.90
17619;DHT22;8928;51.678;6.074;2023-05-10T15:49:04;17.40;99.90
17619;DHT22;8928;51.678;6.074;2023-05-10T15:51:53;17.10;99.90
17619;DHT22;8928;51.678;6.074;2023-05-10T15:54:40;16.70;99.90
17619;DHT22;8928;51.678;6.074;2023-05-10T15:57:27;16.50;99.90
17619;DHT22;8928;51.678;6.074;2023-05-10T16:00:15;16.40;99.90
17619;DHT22;8928;51.678;6.074;2023-05-10T16:03:02;16.10;99.90
17619;DHT22;8928;51.678;6.074;2023-05-10T16:05:49;16.00;99.90
17619;DHT22;8928;51.678;6.074;2023-05-10T16:08:38;16.00;99.90
17619;DHT22;8928;51.678;6.074;2023-05-10T16:11:25;16.10;99.90
17619;DHT22;8928;51.678;6.074;2023-05-10T16:14:12;16.10;99.90
17619;DHT22;8928;51.678;6.074;2023-05-10T16:16:59;16.20;99.90
17619;DHT22;8928;51.678;6.074;2023-05-10T16:19:46;16.40;99.90
17619;DHT22;8928;51.678;6.074;2023-05-10T16:22:34;16.30;99.90
17619;DHT22;8928;51.678;6.074;2023-05-10T16:25:22;16.30;99.90
17619;DHT22;8928;51.678;6.074;2023-05-10T16:28:09;16.40;99.90
17619;DHT22;8928;51.678;6.074;2023-05-10T16:30:56;16.40;99.90
17619;DHT22;8928;51.678;6.074;2023-05-10T16:33:43;16.30;99.90
17619;DHT22;8928;51.678;6.074;2023-05-10T16:36:30;16.40;99.90
17619;DHT22;8928;51.678;6.074;2023-05-10T16:39:17;16.40;99.90
17619;DHT22;8928;51.678;6.074;2023-05-10T16:42:06;16.30;99.90
17619;DHT22;8928;51.678;6.074;2023-05-10T16:44:53;16.30;99.90
17619;DHT22;8928;51.678;6.074;2023-05-10T16:47:40;16.10;99.90
17619;DHT22;8928;51.678;6.074;2023-05-10T16:50:27;16.00;99.90
17619;DHT22;8928;51.678;6.074;2023-05-10T16:53:15;15.90;99.90
17619;DHT22;8928;51.678;6.074;2023-05-10T16:56:02;15.80;99.90
17619;DHT22;8928;51.678;6.074;2023-05-10T16:58:50;15.70;99.90
17619;DHT22;8928;51.678;6.074;2023-05-10T17:01:38;15.60;99.90
17619;DHT22;8928;51.678;6.074;2023-05-10T17:04:25;15.50;99.90
17619;DHT22;8928;51.678;6.074;2023-05-10T17:07:13;15.40;99.90
17619;DHT22;8928;51.678;6.074;2023-05-10T17:10:00;15.30;99.90
17619;DHT22;8928;51.678;6.074;2023-05-10T17:12:48;15.20;99.90
17619;DHT22;8928;51.678;6.074;2023-05-10T17:15:36;15.50;99.90
17619;DHT22;8928;51.678;6.074;2023-05-10T17:18:23;15.80;99.90
17619;DHT22;8928;51.678;6.074;2023-05-10T17:21:11;16.00;99.90
17619;DHT22;8928;51.678;6.074;2023-05-10T17:23:58;15.90;99.90
17619;DHT22;8928;51.678;6.074;2023-05-10T17:26:45;15.70;99.90
17619;DHT22;8928;51.678;6.074;2023-05-10T17:29:32;15.60;99.90
17619;DHT22;8928;51.678;6.074;2023-05-10T17:32:20;15.60;99.90
17619;DHT22;8928;51.678;6.074;2023-05-10T17:35:08;15.60;99.90
17619;DHT22;8928;51.678;6.074;2023-05-10T17:37:55;15.40;99.90
17619;DHT22;8928;51.678;6.074;2023-05-10T17:40:43;15.30;99.90
17619;DHT22;8928;51.678;6.074;2023-05-10T17:43:30;15.20;99.90
17619;DHT22;8928;51.678;6.074;2023-05-10T17:46:17;15.10;99.90
17619;DHT22;8928;51.678;6.074;2023-05-10T17:49:05;14.90;99.90
17619;DHT22;8928;51.678;6.074;2023-05-10T17:51:52;14.80;99.90
17619;DHT22;8928;51.678;6.074;2023-05-10T17:54:39;14.80;99.90
17619;DHT22;8928;51.678;6.074;2023-05-10T17:57:26;14.80;99.90
17619;DHT22;8928;51.678;6.074;2023-05-10T18:00:14;14.80;99.90
17619;DHT22;8928;51.678;6.074;2023-05-10T18:03:01;14.70;99.90